createdAt,value
2019-04-05T00:01:28.687Z,9.30
2019-04-05T00:03:55.225Z,9.30
2019-04-05T00:06:21.723Z,9.30
2019-04-05T00:08:48.010Z,9.30
2019-04-05T00:11:14.363Z,9.30
2019-04-05T00:13:41.163Z,9.30
2019-04-05T00:16:08.617Z,9.30
2019-04-05T00:18:34.915Z,9.30
2019-04-05T00:21:01.878Z,9.20
2019-04-05T00:23:28.163Z,9.30
2019-04-05T00:25:55.526Z,9.30
2019-04-05T00:28:22.239Z,9.30
2019-04-05T00:30:48.498Z,9.20
2019-04-05T00:33:14.875Z,9.20
2019-04-05T00:35:42.263Z,9.20
2019-04-05T00:38:08.543Z,9.20
2019-04-05T00:40:35.203Z,9.20
2019-04-05T00:43:01.745Z,9.20
2019-04-05T00:45:28.859Z,9.20
2019-04-05T00:47:55.642Z,9.20
2019-04-05T00:50:22.575Z,9.20
2019-04-05T00:52:48.947Z,9.20
2019-04-05T00:55:15.433Z,9.20
2019-04-05T00:57:41.702Z,9.20
2019-04-05T01:00:10.315Z,9.20
2019-04-05T01:02:36.802Z,9.20
2019-04-05T01:05:05.095Z,9.20
2019-04-05T01:07:31.491Z,9.20
2019-04-05T01:09:58.059Z,9.20
2019-04-05T01:12:24.858Z,9.20
2019-04-05T01:14:52.335Z,9.10
2019-04-05T01:17:24.873Z,9.10
2019-04-05T01:19:49.022Z,9.10
2019-04-05T01:22:17.916Z,9.10
2019-04-05T01:24:44.379Z,9.10
2019-04-05T01:27:12.077Z,9.10
2019-04-05T01:29:38.430Z,9.10
2019-04-05T01:32:04.947Z,9.10
2019-04-05T01:34:31.216Z,9.10
2019-04-05T01:36:57.687Z,9.10
2019-04-05T01:39:23.971Z,9.10
2019-04-05T01:41:50.453Z,9.10
2019-04-05T01:44:16.955Z,9.10
2019-04-05T01:46:43.310Z,9.00
2019-04-05T01:49:09.627Z,9.00
2019-04-05T01:51:36.199Z,9.00
2019-04-05T01:54:03.263Z,9.00
2019-04-05T01:56:29.822Z,9.00
2019-04-05T01:58:56.189Z,9.00
2019-04-05T02:01:22.779Z,9.00
2019-04-05T02:03:49.159Z,9.00
2019-04-05T02:06:15.466Z,9.00
2019-04-05T02:08:41.935Z,9.00
2019-04-05T02:11:08.431Z,9.00
2019-04-05T02:13:35.234Z,9.00
2019-04-05T02:16:06.662Z,9.00
2019-04-05T02:18:29.986Z,9.10
2019-04-05T02:20:56.507Z,9.10
2019-04-05T02:23:22.906Z,9.10
2019-04-05T02:25:49.387Z,9.10
2019-04-05T02:28:15.855Z,9.10
2019-04-05T02:30:42.524Z,9.10
2019-04-05T02:33:08.912Z,9.20
2019-04-05T02:35:38.960Z,9.10
2019-04-05T02:38:04.083Z,9.20
2019-04-05T02:40:32.647Z,9.20
2019-04-05T02:43:01.137Z,9.20
2019-04-05T02:45:31.104Z,9.20
2019-04-05T02:48:01.304Z,9.20
2019-04-05T02:50:30.364Z,9.20
2019-04-05T02:53:01.001Z,9.20
2019-04-05T02:55:28.987Z,9.20
2019-04-05T02:57:58.066Z,9.20
2019-04-05T03:00:24.826Z,9.20
2019-04-05T03:02:51.618Z,9.20
2019-04-05T03:05:19.977Z,9.20
2019-04-05T03:07:46.872Z,9.20
2019-04-05T03:10:43.205Z,9.20
2019-04-05T03:13:10.018Z,9.20
2019-04-05T03:15:36.688Z,9.20
2019-04-05T03:18:03.361Z,9.20
2019-04-05T03:20:29.955Z,9.10
2019-04-05T03:22:56.787Z,9.10
2019-04-05T03:25:23.396Z,9.10
2019-04-05T03:27:50.046Z,9.10
2019-04-05T03:30:16.557Z,9.10
2019-04-05T03:32:43.917Z,9.10
2019-04-05T03:35:10.495Z,9.10
2019-04-05T03:37:36.855Z,9.10
2019-04-05T03:40:05.243Z,9.10
2019-04-05T03:42:31.815Z,9.10
2019-04-05T03:44:58.619Z,9.10
2019-04-05T03:47:25.190Z,9.10
2019-04-05T03:49:51.979Z,9.10
2019-04-05T03:52:18.346Z,9.10
2019-04-05T03:54:45.558Z,9.10
2019-04-05T03:57:12.128Z,9.10
2019-04-05T03:59:38.614Z,9.10
2019-04-05T04:02:05.109Z,9.10
2019-04-05T04:04:31.466Z,9.10
2019-04-05T04:06:57.985Z,9.10
2019-04-05T04:09:24.559Z,9.10
2019-04-05T04:11:51.652Z,9.10
2019-04-05T04:14:18.219Z,9.00
2019-04-05T04:16:45.120Z,9.00
2019-04-05T04:19:12.038Z,9.00
2019-04-05T04:22:10.945Z,9.00
2019-04-05T04:24:37.612Z,9.00
2019-04-05T04:27:04.236Z,9.00
2019-04-05T04:29:30.905Z,8.90
2019-04-05T04:31:57.908Z,8.90
2019-04-05T04:34:24.403Z,8.90
2019-04-05T04:36:51.697Z,9.00
2019-04-05T04:39:18.767Z,9.00
2019-04-05T04:41:45.204Z,8.90
2019-04-05T04:44:11.894Z,8.90
2019-04-05T04:46:39.363Z,8.90
2019-04-05T04:49:06.407Z,8.90
2019-04-05T04:51:33.483Z,8.90
2019-04-05T04:54:00.503Z,8.90
2019-04-05T04:56:27.270Z,8.90
2019-04-05T04:58:53.998Z,8.90
2019-04-05T05:01:20.562Z,8.90
2019-04-05T05:03:47.401Z,8.80
2019-04-05T05:06:13.982Z,8.80
2019-04-05T05:08:40.748Z,8.80
2019-04-05T05:11:14.358Z,8.80
2019-04-05T05:13:36.597Z,8.80
2019-04-05T05:16:03.530Z,8.80
2019-04-05T05:18:30.623Z,8.80
2019-04-05T05:20:57.294Z,8.80
2019-04-05T05:23:25.388Z,8.80
2019-04-05T05:25:52.544Z,8.80
2019-04-05T05:28:19.405Z,8.80
2019-04-05T05:30:46.428Z,8.90
2019-04-05T05:33:13.273Z,8.90
2019-04-05T05:35:39.955Z,8.90
2019-04-05T05:38:06.631Z,8.90
2019-04-05T05:40:35.050Z,8.90
2019-04-05T05:43:01.599Z,8.90
2019-04-05T05:45:28.206Z,8.90
2019-04-05T05:47:54.899Z,9.00
2019-04-05T05:50:21.290Z,8.90
2019-04-05T05:52:48.060Z,9.00
2019-04-05T05:55:14.662Z,8.90
2019-04-05T05:57:41.138Z,9.00
2019-04-05T06:00:10.406Z,8.90
2019-04-05T06:02:38.763Z,9.00
2019-04-05T06:05:05.335Z,9.00
2019-04-05T06:07:31.938Z,9.00
2019-04-05T06:09:58.199Z,9.00
2019-04-05T06:12:24.807Z,9.00
2019-04-05T06:14:51.175Z,9.00
2019-04-05T06:17:18.871Z,9.00
2019-04-05T06:19:45.135Z,9.10
2019-04-05T06:22:11.464Z,9.10
2019-04-05T06:24:37.754Z,9.10
2019-04-05T06:27:04.558Z,9.20
2019-04-05T06:29:30.927Z,9.20
2019-04-05T06:31:57.195Z,9.20
2019-04-05T06:34:23.507Z,9.20
2019-04-05T06:36:51.178Z,9.30
2019-04-05T06:39:20.551Z,9.30
2019-04-05T06:41:46.027Z,9.30
2019-04-05T06:44:12.422Z,9.30
2019-04-05T06:46:38.992Z,9.30
2019-04-05T06:49:05.326Z,9.30
2019-04-05T06:51:31.611Z,9.30
2019-04-05T06:53:58.178Z,9.30
2019-04-05T06:56:24.802Z,9.30
2019-04-05T06:58:51.068Z,9.40
2019-04-05T07:01:17.718Z,9.40
2019-04-05T07:03:44.008Z,9.50
2019-04-05T07:06:10.644Z,9.50
2019-04-05T07:08:36.898Z,9.50
2019-04-05T07:11:03.367Z,9.60
2019-04-05T07:13:30.658Z,9.60
2019-04-05T07:15:57.396Z,9.60
2019-04-05T07:18:33.981Z,9.60
2019-04-05T07:20:52.037Z,9.70
2019-04-05T07:23:18.846Z,9.70
2019-04-05T07:25:45.106Z,9.80
2019-04-05T07:28:11.397Z,9.80
2019-04-05T07:30:38.142Z,9.80
2019-04-05T07:33:04.433Z,9.90
2019-04-05T07:35:33.644Z,9.90
2019-04-05T07:37:59.402Z,9.90
2019-04-05T07:40:25.704Z,10.00
2019-04-05T07:42:52.155Z,10.00
2019-04-05T07:45:18.519Z,10.00
2019-04-05T07:47:45.074Z,10.00
2019-04-05T07:50:12.483Z,10.10
2019-04-05T07:52:38.745Z,10.10
2019-04-05T07:55:08.141Z,10.20
2019-04-05T07:57:34.799Z,10.20
2019-04-05T08:00:08.957Z,10.20
2019-04-05T08:02:35.354Z,10.30
2019-04-05T08:05:06.164Z,10.30
2019-04-05T08:07:35.535Z,10.30
2019-04-05T08:10:03.133Z,10.30
2019-04-05T08:12:29.795Z,10.30
2019-04-05T08:14:56.796Z,10.40
2019-04-05T08:17:23.055Z,10.40
2019-04-05T08:19:49.651Z,10.40
2019-04-05T08:22:15.914Z,10.50
2019-04-05T08:24:42.514Z,10.50
2019-04-05T08:27:08.888Z,10.60
2019-04-05T08:29:35.406Z,10.60
2019-04-05T08:32:14.017Z,10.70
2019-04-05T08:34:30.022Z,10.70
2019-04-05T08:36:56.291Z,10.70
2019-04-05T08:39:22.582Z,10.80
2019-04-05T08:41:49.072Z,10.80
2019-04-05T08:44:15.641Z,10.80
2019-04-05T08:46:41.935Z,10.90
2019-04-05T08:49:11.061Z,10.90
2019-04-05T08:51:36.535Z,11.00
2019-04-05T08:54:03.387Z,11.00
2019-04-05T08:56:30.058Z,11.10
2019-04-05T08:58:56.323Z,11.10
2019-04-05T09:01:22.810Z,11.10
2019-04-05T09:03:49.653Z,11.10
2019-04-05T09:06:16.483Z,11.20
2019-04-05T09:08:42.752Z,11.20
2019-04-05T09:11:09.265Z,11.20
2019-04-05T09:13:36.100Z,11.20
2019-04-05T09:16:03.018Z,11.20
2019-04-05T09:18:29.679Z,11.20
2019-04-05T09:20:55.942Z,11.30
2019-04-05T09:23:22.243Z,11.30
2019-04-05T09:25:48.980Z,11.30
2019-04-05T09:28:15.727Z,11.40
2019-04-05T09:30:42.205Z,11.50
2019-04-05T09:33:08.597Z,11.50
2019-04-05T09:35:34.862Z,11.60
2019-04-05T09:38:01.275Z,11.60
2019-04-05T09:40:27.671Z,11.60
2019-04-05T09:42:54.422Z,11.60
2019-04-05T09:45:20.726Z,11.70
2019-04-05T09:47:46.991Z,11.70
2019-04-05T09:50:14.026Z,11.80
2019-04-05T09:52:40.566Z,11.80
2019-04-05T09:55:07.210Z,11.80
2019-04-05T09:57:33.677Z,11.90
2019-04-05T10:00:00.018Z,11.90
2019-04-05T10:02:26.299Z,11.90
2019-04-05T10:04:52.592Z,11.90
2019-04-05T10:07:19.067Z,11.90
2019-04-05T10:09:46.477Z,11.90
2019-04-05T10:12:12.843Z,12.00
2019-04-05T10:14:40.226Z,12.00
2019-04-05T10:17:06.514Z,12.00
2019-04-05T10:19:33.075Z,12.10
2019-04-05T10:21:59.814Z,12.10
2019-04-05T10:24:26.084Z,12.10
2019-04-05T10:26:52.371Z,12.10
2019-04-05T10:29:18.626Z,12.10
2019-04-05T10:31:46.021Z,12.10
2019-04-05T10:34:12.395Z,12.10
2019-04-05T10:36:40.057Z,12.10
2019-04-05T10:39:08.035Z,12.10
2019-04-05T10:41:34.528Z,12.10
2019-04-05T10:44:01.703Z,12.10
2019-04-05T10:46:28.036Z,12.10
2019-04-05T10:48:54.303Z,12.10
2019-04-05T10:51:20.590Z,12.20
2019-04-05T10:53:47.359Z,12.20
2019-04-05T10:56:13.976Z,12.20
2019-04-05T10:58:40.458Z,12.30
2019-04-05T11:01:07.141Z,12.30
2019-04-05T11:03:33.559Z,12.30
2019-04-05T11:06:00.014Z,12.40
2019-04-05T11:08:26.654Z,12.40
2019-04-05T11:10:53.291Z,12.40
2019-04-05T11:13:20.045Z,12.40
2019-04-05T11:15:46.420Z,12.40
2019-04-05T11:18:12.852Z,12.40
2019-04-05T11:20:39.106Z,12.40
2019-04-05T11:23:05.380Z,12.50
2019-04-05T11:25:31.667Z,12.50
2019-04-05T11:27:57.944Z,12.50
2019-04-05T11:30:44.583Z,12.60
2019-04-05T11:33:11.144Z,12.60
2019-04-05T11:35:38.730Z,12.60
2019-04-05T11:38:05.770Z,12.60
2019-04-05T11:40:32.617Z,12.60
2019-04-05T11:43:01.289Z,12.70
2019-04-05T11:45:28.378Z,12.70
2019-04-05T11:47:57.755Z,12.70
2019-04-05T11:50:34.465Z,12.70
2019-04-05T11:52:53.181Z,12.70
2019-04-05T11:55:19.550Z,12.70
2019-04-05T11:57:45.834Z,12.70
2019-04-05T12:00:14.643Z,12.80
2019-04-05T12:02:44.235Z,12.80
2019-04-05T12:05:13.597Z,12.80
2019-04-05T12:07:39.886Z,12.80
2019-04-05T12:10:07.319Z,12.80
2019-04-05T12:12:33.709Z,12.80
2019-04-05T12:15:00.390Z,12.90
2019-04-05T12:17:27.245Z,12.90
2019-04-05T12:19:53.667Z,12.80
2019-04-05T12:22:20.331Z,12.80
2019-04-05T12:24:47.718Z,12.80
2019-04-05T12:27:14.303Z,12.80
2019-04-05T12:29:40.591Z,12.80
2019-04-05T12:32:06.859Z,12.80
2019-04-05T12:34:33.259Z,12.80
2019-04-05T12:36:59.828Z,12.80
2019-04-05T12:39:26.210Z,12.80
2019-04-05T12:41:52.864Z,12.80
2019-04-05T12:44:19.500Z,12.80
2019-04-05T12:46:46.354Z,12.80
2019-04-05T12:49:13.380Z,12.80
2019-04-05T12:51:41.030Z,12.80
2019-04-05T12:54:07.435Z,12.80
2019-04-05T12:56:33.806Z,12.90
2019-04-05T12:59:00.078Z,12.90
2019-04-05T13:01:26.494Z,12.90
2019-04-05T13:03:52.784Z,12.90
2019-04-05T13:06:21.772Z,12.90
2019-04-05T13:08:49.350Z,12.80
2019-04-05T13:11:15.735Z,12.80
2019-04-05T13:13:42.370Z,12.80
2019-04-05T13:16:10.756Z,12.80
2019-04-05T13:18:36.968Z,12.80
2019-04-05T13:21:14.353Z,12.90
2019-04-05T13:23:33.669Z,12.90
2019-04-05T13:26:00.126Z,12.90
2019-04-05T13:28:26.806Z,12.90
2019-04-05T13:30:55.318Z,12.90
2019-04-05T13:33:21.645Z,12.90
2019-04-05T13:35:49.438Z,12.90
2019-04-05T13:38:16.827Z,12.90
2019-04-05T13:40:43.103Z,12.90
2019-04-05T13:43:09.730Z,12.80
2019-04-05T13:45:36.197Z,12.90
2019-04-05T13:48:02.700Z,12.80
2019-04-05T13:50:29.062Z,12.80
2019-04-05T13:52:55.442Z,12.80
2019-04-05T13:55:21.711Z,12.80
2019-04-05T13:57:48.327Z,12.80
2019-04-05T14:00:18.110Z,12.80
2019-04-05T14:02:43.909Z,12.80
2019-04-05T14:05:10.399Z,12.80
2019-04-05T14:07:36.659Z,12.80
2019-04-05T14:10:10.759Z,12.80
2019-04-05T14:12:37.641Z,12.70
2019-04-05T14:15:04.663Z,12.70
2019-04-05T14:17:30.919Z,12.80
2019-04-05T14:19:57.201Z,12.80
2019-04-05T14:22:24.838Z,12.70
2019-04-05T14:24:52.573Z,12.70
2019-04-05T14:27:20.263Z,12.70
2019-04-05T14:29:47.731Z,12.70
2019-04-05T14:32:21.308Z,12.70
2019-04-05T14:34:42.403Z,12.70
2019-04-05T14:37:08.970Z,12.70
2019-04-05T14:39:35.321Z,12.80
2019-04-05T14:42:09.624Z,12.70
2019-04-05T14:44:30.030Z,12.80
2019-04-05T14:46:58.116Z,12.80
2019-04-05T14:49:24.489Z,12.80
2019-04-05T14:51:53.878Z,12.80
2019-04-05T14:54:19.152Z,12.80
2019-04-05T14:56:45.738Z,12.80
2019-04-05T14:59:12.042Z,12.80
2019-04-05T15:01:38.830Z,12.80
2019-04-05T15:04:05.246Z,12.80
2019-04-05T15:06:31.853Z,12.80
2019-04-05T15:08:58.445Z,12.80
2019-04-05T15:11:28.724Z,12.90
2019-04-05T15:13:53.340Z,12.90
2019-04-05T15:16:23.424Z,12.90
2019-04-05T15:18:49.456Z,12.90
2019-04-05T15:21:15.958Z,12.90
2019-04-05T15:23:45.418Z,12.90
2019-04-05T15:26:10.757Z,12.90
2019-04-05T15:28:39.042Z,12.90
2019-04-05T15:31:05.441Z,12.90
2019-04-05T15:33:31.917Z,12.90
2019-04-05T15:36:02.398Z,12.90
2019-04-05T15:38:26.939Z,12.90
2019-04-05T15:40:53.285Z,12.90
2019-04-05T15:43:19.907Z,12.90
2019-04-05T15:45:47.392Z,12.90
2019-04-05T15:48:13.758Z,12.90
2019-04-05T15:50:40.510Z,12.90
2019-04-05T15:53:06.862Z,12.90
2019-04-05T15:55:34.362Z,12.90
2019-04-05T15:58:01.429Z,12.90
2019-04-05T16:00:43.446Z,12.90
2019-04-05T16:03:10.048Z,12.90
2019-04-05T16:05:36.981Z,12.90
2019-04-05T16:08:03.892Z,12.80
2019-04-05T16:10:30.256Z,12.90
2019-04-05T16:12:56.656Z,12.80
2019-04-05T16:15:23.022Z,12.80
2019-04-05T16:17:49.783Z,12.80
2019-04-05T16:20:16.761Z,12.80
2019-04-05T16:22:43.467Z,12.80
2019-04-05T16:25:10.441Z,12.80
2019-04-05T16:27:37.363Z,12.80
2019-04-05T16:30:05.846Z,12.80
2019-04-05T16:32:32.590Z,12.80
2019-04-05T16:34:58.966Z,12.80
2019-04-05T16:37:25.243Z,12.70
2019-04-05T16:39:51.978Z,12.70
2019-04-05T16:42:18.239Z,12.70
2019-04-05T16:44:45.342Z,12.60
2019-04-05T16:47:11.607Z,12.70
2019-04-05T16:49:37.999Z,12.60
2019-04-05T16:52:04.367Z,12.60
2019-04-05T16:54:30.848Z,12.60
2019-04-05T16:56:57.295Z,12.50
2019-04-05T16:59:23.677Z,12.60
2019-04-05T17:01:50.290Z,12.50
2019-04-05T17:04:17.127Z,12.50
2019-04-05T17:06:43.918Z,12.50
2019-04-05T17:09:10.395Z,12.40
2019-04-05T17:11:36.791Z,12.40
2019-04-05T17:14:03.463Z,12.40
2019-04-05T17:16:30.834Z,12.40
2019-04-05T17:18:58.331Z,12.40
2019-04-05T17:21:24.613Z,12.40
2019-04-05T17:23:51.177Z,12.30
2019-04-05T17:26:18.819Z,12.30
2019-04-05T17:28:45.203Z,12.30
2019-04-05T17:31:11.567Z,12.30
2019-04-05T17:33:37.850Z,12.30
2019-04-05T17:36:04.158Z,12.20
2019-04-05T17:38:30.744Z,12.30
2019-04-05T17:40:57.210Z,12.20
2019-04-05T17:43:23.756Z,12.20
2019-04-05T17:45:50.399Z,12.20
2019-04-05T17:48:16.649Z,12.20
2019-04-05T17:50:43.355Z,12.20
2019-04-05T17:53:13.516Z,12.20
2019-04-05T17:55:38.026Z,12.10
2019-04-05T17:58:05.348Z,12.10
2019-04-05T18:00:31.785Z,12.10
2019-04-05T18:02:58.120Z,12.10
2019-04-05T18:05:25.383Z,12.10
2019-04-05T18:07:51.815Z,12.00
2019-04-05T18:10:18.279Z,12.00
2019-04-05T18:12:44.571Z,12.00
2019-04-05T18:15:11.030Z,11.90
2019-04-05T18:17:37.422Z,11.90
2019-04-05T18:20:05.682Z,11.90
2019-04-05T18:22:31.964Z,11.90
2019-04-05T18:24:58.446Z,11.90
2019-04-05T18:27:24.718Z,11.90
2019-04-05T18:29:51.315Z,11.90
2019-04-05T18:32:17.795Z,11.90
2019-04-05T18:34:44.092Z,11.90
2019-04-05T18:37:10.354Z,11.80
2019-04-05T18:39:36.751Z,11.90
2019-04-05T18:42:03.332Z,11.80
2019-04-05T18:44:29.614Z,11.80
2019-04-05T18:46:56.017Z,11.80
2019-04-05T18:49:22.588Z,11.80
2019-04-05T18:51:49.310Z,11.80
2019-04-05T18:54:15.963Z,11.80
2019-04-05T18:56:42.628Z,11.80
2019-04-05T18:59:08.994Z,11.80
2019-04-05T19:01:35.502Z,11.70
2019-04-05T19:04:01.886Z,11.80
2019-04-05T19:06:34.264Z,11.80
2019-04-05T19:09:01.430Z,11.70
2019-04-05T19:11:29.746Z,11.70
2019-04-05T19:14:01.309Z,11.70
2019-04-05T19:16:24.607Z,11.70
2019-04-05T19:18:51.399Z,11.60
2019-04-05T19:21:18.119Z,11.70
2019-04-05T19:23:50.841Z,11.60
2019-04-05T19:26:12.861Z,11.60
2019-04-05T19:28:39.450Z,11.60
2019-04-05T19:48:30.573Z,11.60
2019-04-05T19:50:51.875Z,11.60
2019-04-05T19:53:18.226Z,11.60
2019-04-05T19:55:44.716Z,11.60
2019-04-05T19:58:10.989Z,11.60
2019-04-05T20:00:37.465Z,11.60
2019-04-05T20:03:04.067Z,11.60
2019-04-05T20:05:30.558Z,11.60
2019-04-05T20:07:57.183Z,11.60
2019-04-05T20:10:23.559Z,11.60
2019-04-05T20:12:50.291Z,11.60
2019-04-05T20:15:16.805Z,11.60
2019-04-05T20:17:43.104Z,11.60
2019-04-05T20:20:09.678Z,11.60
2019-04-05T20:22:36.437Z,11.60
2019-04-05T20:25:06.444Z,11.60
2019-04-05T20:27:33.290Z,11.60
2019-04-05T20:29:59.664Z,11.60
2019-04-05T20:32:26.490Z,11.60
2019-04-05T20:34:52.862Z,11.50
2019-04-05T20:37:19.245Z,11.50
2019-04-05T20:39:45.793Z,11.50
2019-04-05T20:42:12.259Z,11.50
2019-04-05T20:44:38.546Z,11.50
2019-04-05T20:47:05.171Z,11.50
2019-04-05T20:49:31.588Z,11.50
2019-04-05T20:51:57.946Z,11.50
2019-04-05T20:54:24.997Z,11.50
2019-04-05T20:56:51.498Z,11.50
2019-04-05T20:59:18.978Z,11.60
2019-04-05T21:01:45.272Z,11.50
2019-04-05T21:04:11.664Z,11.60
2019-04-05T21:06:37.945Z,11.60
2019-04-05T21:09:06.210Z,11.60
2019-04-05T21:11:34.120Z,11.60
2019-04-05T21:14:00.497Z,11.60
2019-04-05T21:16:27.323Z,11.60
2019-04-05T21:18:53.918Z,11.60
2019-04-05T21:21:20.174Z,11.60
2019-04-05T21:23:46.549Z,11.60
2019-04-05T21:26:12.919Z,11.50
2019-04-05T21:28:39.550Z,11.50
2019-04-05T21:31:05.811Z,11.50
2019-04-05T21:33:32.110Z,11.50
2019-04-05T21:35:58.649Z,11.50
2019-04-05T21:38:24.918Z,11.50
2019-04-05T21:40:51.532Z,11.50
2019-04-05T21:43:17.899Z,11.50
2019-04-05T21:45:44.687Z,11.50
2019-04-05T21:48:11.075Z,11.50
2019-04-05T21:50:37.362Z,11.50
2019-04-05T21:53:03.738Z,11.50
2019-04-05T21:55:30.004Z,11.50
2019-04-05T21:57:56.412Z,11.50
2019-04-05T22:00:31.071Z,11.50
2019-04-05T22:02:59.390Z,11.50
2019-04-05T22:05:25.759Z,11.50
2019-04-05T22:07:52.041Z,11.50
2019-04-05T22:10:18.724Z,11.50
2019-04-05T22:12:45.219Z,11.50
2019-04-05T22:15:11.890Z,11.50
2019-04-05T22:17:38.251Z,11.50
2019-04-05T22:20:05.271Z,11.50
2019-04-05T22:22:31.638Z,11.50
2019-04-05T22:24:59.574Z,11.50
2019-04-05T22:27:26.114Z,11.50
2019-04-05T22:29:52.747Z,11.50
2019-04-05T22:32:19.019Z,11.50
2019-04-05T22:34:45.421Z,11.50
2019-04-05T22:37:11.683Z,11.40
2019-04-05T22:39:37.964Z,11.50
2019-04-05T22:42:04.433Z,11.50
2019-04-05T22:44:38.093Z,11.40
2019-04-05T22:46:58.904Z,11.50
2019-04-05T22:49:25.678Z,11.50
2019-04-05T22:51:51.980Z,11.40
2019-04-05T22:54:19.446Z,11.50
2019-04-05T22:56:45.854Z,11.50
2019-04-05T22:59:13.230Z,11.50
2019-04-05T23:01:39.509Z,11.50
2019-04-05T23:04:06.314Z,11.50
2019-04-05T23:06:32.666Z,11.60
2019-04-05T23:08:59.075Z,11.50
2019-04-05T23:11:25.338Z,11.60
2019-04-05T23:13:51.638Z,11.60
2019-04-05T23:16:18.255Z,11.60
2019-04-05T23:18:44.791Z,11.60
2019-04-05T23:21:11.206Z,11.50
2019-04-05T23:23:37.567Z,11.50
2019-04-05T23:26:04.295Z,11.50
2019-04-05T23:28:30.571Z,11.50
2019-04-05T23:30:57.268Z,11.50
2019-04-05T23:33:23.534Z,11.50
2019-04-05T23:35:49.822Z,11.50
2019-04-05T23:38:16.211Z,11.50
2019-04-05T23:40:42.569Z,11.50
2019-04-05T23:43:09.228Z,11.50
2019-04-05T23:45:35.703Z,11.50
2019-04-05T23:48:02.290Z,11.50
2019-04-05T23:50:28.558Z,11.50
2019-04-05T23:52:54.870Z,11.50
2019-04-05T23:55:32.509Z,11.50
2019-04-05T23:57:49.443Z,11.50
